sensor_id;sensor_type;location;lat;lon;timestamp;pressure;altitude;pressure_sealevel;temperature;humidity
78459;BME280;67753;42.684;23.330;2023-03-23T00:01:49;94741.78;;;7.03;nan
78459;BME280;67753;42.684;23.330;2023-03-23T00:03:53;94737.09;;;7.00;nan
78459;BME280;67753;42.684;23.330;2023-03-23T00:05:57;94731.13;;;7.03;nan
78459;BME280;67753;42.684;23.330;2023-03-23T00:08:04;94730.91;;;6.96;nan
78459;BME280;67753;42.684;23.330;2023-03-23T00:10:07;94735.69;;;7.30;nan
78459;BME280;67753;42.684;23.330;2023-03-23T00:12:09;94749.91;;;7.34;nan
78459;BME280;67753;42.684;23.330;2023-03-23T00:14:17;94751.03;;;7.21;nan
78459;BME280;67753;42.684;23.330;2023-03-23T00:16:24;94752.53;;;7.06;nan
78459;BME280;67753;42.684;23.330;2023-03-23T00:18:30;94755.25;;;7.22;nan
78459;BME280;67753;42.684;23.330;2023-03-23T00:20:32;94759.69;;;7.18;nan
78459;BME280;67753;42.684;23.330;2023-03-23T00:22:40;94748.44;;;6.97;nan
78459;BME280;67753;42.684;23.330;2023-03-23T00:24:43;94742.25;;;6.93;nan
78459;BME280;67753;42.684;23.330;2023-03-23T00:26:47;94747.66;;;6.96;nan
78459;BME280;67753;42.684;23.330;2023-03-23T00:28:52;94744.25;;;6.83;nan
78459;BME280;67753;42.684;23.330;2023-03-23T00:30:58;94760.06;;;7.04;nan
78459;BME280;67753;42.684;23.330;2023-03-23T00:33:00;94764.84;;;7.11;nan
78459;BME280;67753;42.684;23.330;2023-03-23T00:35:02;94771.91;;;7.19;nan
78459;BME280;67753;42.684;23.330;2023-03-23T00:37:05;94784.91;;;7.21;nan
78459;BME280;67753;42.684;23.330;2023-03-23T00:39:07;94789.31;;;7.29;nan
78459;BME280;67753;42.684;23.330;2023-03-23T00:41:09;94796.34;;;7.21;nan
78459;BME280;67753;42.684;23.330;2023-03-23T00:43:11;94800.78;;;7.17;nan
78459;BME280;67753;42.684;23.330;2023-03-23T00:45:14;94796.78;;;7.23;nan
78459;BME280;67753;42.684;23.330;2023-03-23T00:47:18;94790.13;;;7.17;nan
78459;BME280;67753;42.684;23.330;2023-03-23T00:49:21;94799.44;;;7.23;nan
78459;BME280;67753;42.684;23.330;2023-03-23T00:51:26;94807.97;;;7.29;nan
78459;BME280;67753;42.684;23.330;2023-03-23T00:53:28;94795.66;;;7.24;nan
78459;BME280;67753;42.684;23.330;2023-03-23T00:55:31;94809.56;;;7.17;nan
78459;BME280;67753;42.684;23.330;2023-03-23T00:57:34;94801.22;;;7.19;nan
78459;BME280;67753;42.684;23.330;2023-03-23T00:59:36;94807.19;;;7.28;nan
78459;BME280;67753;42.684;23.330;2023-03-23T01:01:38;94804.28;;;7.33;nan
78459;BME280;67753;42.684;23.330;2023-03-23T01:03:44;94808.94;;;7.36;nan
78459;BME280;67753;42.684;23.330;2023-03-23T01:05:46;94817.84;;;7.40;nan
78459;BME280;67753;42.684;23.330;2023-03-23T01:07:48;94813.81;;;7.47;nan
78459;BME280;67753;42.684;23.330;2023-03-23T01:09:50;94821.56;;;7.52;nan
78459;BME280;67753;42.684;23.330;2023-03-23T01:11:54;94809.03;;;7.12;nan
78459;BME280;67753;42.684;23.330;2023-03-23T01:13:58;94801.63;;;7.33;nan
78459;BME280;67753;42.684;23.330;2023-03-23T01:16:00;94806.03;;;7.41;nan
78459;BME280;67753;42.684;23.330;2023-03-23T01:18:07;94804.94;;;7.42;nan
78459;BME280;67753;42.684;23.330;2023-03-23T01:20:12;94805.91;;;7.50;nan
78459;BME280;67753;42.684;23.330;2023-03-23T01:22:14;94803.34;;;7.54;nan
78459;BME280;67753;42.684;23.330;2023-03-23T01:24:16;94786.69;;;7.16;nan
78459;BME280;67753;42.684;23.330;2023-03-23T01:26:20;94764.47;;;6.60;nan
78459;BME280;67753;42.684;23.330;2023-03-23T01:28:22;94746.84;;;6.43;nan
78459;BME280;67753;42.684;23.330;2023-03-23T01:30:25;94740.53;;;6.60;nan
78459;BME280;67753;42.684;23.330;2023-03-23T01:32:28;94738.41;;;6.53;nan
78459;BME280;67753;42.684;23.330;2023-03-23T01:34:30;94731.31;;;6.57;nan
78459;BME280;67753;42.684;23.330;2023-03-23T01:36:33;94720.19;;;6.68;nan
78459;BME280;67753;42.684;23.330;2023-03-23T01:38:35;94713.78;;;6.56;nan
78459;BME280;67753;42.684;23.330;2023-03-23T01:40:37;94709.25;;;6.57;nan
78459;BME280;67753;42.684;23.330;2023-03-23T01:42:40;94709.25;;;6.57;nan
78459;BME280;67753;42.684;23.330;2023-03-23T01:47:27;94707.34;;;6.70;nan
78459;BME280;67753;42.684;23.330;2023-03-23T01:49:32;94710.69;;;7.07;nan
78459;BME280;67753;42.684;23.330;2023-03-23T01:51:41;94715.91;;;7.03;nan
78459;BME280;67753;42.684;23.330;2023-03-23T01:53:46;94722.25;;;6.86;nan
78459;BME280;67753;42.684;23.330;2023-03-23T01:55:52;94722.00;;;7.04;nan
78459;BME280;67753;42.684;23.330;2023-03-23T01:57:56;94730.06;;;6.79;nan
78459;BME280;67753;42.684;23.330;2023-03-23T02:00:02;94720.81;;;6.89;nan
78459;BME280;67753;42.684;23.330;2023-03-23T02:02:12;94723.63;;;6.80;nan
78459;BME280;67753;42.684;23.330;2023-03-23T02:04:16;94722.63;;;6.73;nan
78459;BME280;67753;42.684;23.330;2023-03-23T02:06:18;94730.50;;;6.81;nan
78459;BME280;67753;42.684;23.330;2023-03-23T02:08:26;94734.50;;;6.87;nan
78459;BME280;67753;42.684;23.330;2023-03-23T02:10:30;94733.31;;;7.01;nan
78459;BME280;67753;42.684;23.330;2023-03-23T02:12:32;94735.69;;;7.30;nan
78459;BME280;67753;42.684;23.330;2023-03-23T02:14:35;94744.56;;;7.62;nan
78459;BME280;67753;42.684;23.330;2023-03-23T02:16:41;94754.88;;;7.36;nan
78459;BME280;67753;42.684;23.330;2023-03-23T02:26:33;94757.56;;;7.24;nan
78459;BME280;67753;42.684;23.330;2023-03-23T02:29:07;94748.44;;;6.97;nan
78459;BME280;67753;42.684;23.330;2023-03-23T02:31:21;94752.84;;;7.05;nan
78459;BME280;67753;42.684;23.330;2023-03-23T02:33:36;94751.66;;;7.02;nan
78459;BME280;67753;42.684;23.330;2023-03-23T02:35:43;94746.00;;;6.91;nan
78459;BME280;67753;42.684;23.330;2023-03-23T02:37:49;94745.56;;;6.77;nan
78459;BME280;67753;42.684;23.330;2023-03-23T02:39:57;84390.75;;;6.86;nan
78459;BME280;67753;42.684;23.330;2023-03-23T02:42:05;94741.78;;;6.90;nan
78459;BME280;67753;42.684;23.330;2023-03-23T02:44:08;94758.63;;;7.07;nan
78459;BME280;67753;42.684;23.330;2023-03-23T02:46:13;94762.59;;;7.13;nan
78459;BME280;67753;42.684;23.330;2023-03-23T02:48:18;94765.16;;;7.09;nan
78459;BME280;67753;42.684;23.330;2023-03-23T02:50:24;94765.88;;;6.94;nan
78459;BME280;67753;42.684;23.330;2023-03-23T02:52:30;94765.03;;;6.78;nan
78459;BME280;67753;42.684;23.330;2023-03-23T02:54:34;94767.09;;;6.84;nan
78459;BME280;67753;42.684;23.330;2023-03-23T02:56:38;94776.53;;;6.94;nan
78459;BME280;67753;42.684;23.330;2023-03-23T02:58:41;94780.19;;;6.89;nan
78459;BME280;67753;42.684;23.330;2023-03-23T03:00:43;94777.75;;;6.84;nan
78459;BME280;67753;42.684;23.330;2023-03-23T03:02:52;94788.97;;;6.78;nan
78459;BME280;67753;42.684;23.330;2023-03-23T03:05:00;94795.19;;;6.70;nan
78459;BME280;67753;42.684;23.330;2023-03-23T03:07:25;94798.84;;;6.65;nan
78459;BME280;67753;42.684;23.330;2023-03-23T03:09:39;94799.53;;;6.50;nan
78459;BME280;67753;42.684;23.330;2023-03-23T03:11:48;94807.50;;;6.74;nan
78459;BME280;67753;42.684;23.330;2023-03-23T03:13:55;94815.50;;;6.74;nan
78459;BME280;67753;42.684;23.330;2023-03-23T03:16:05;94824.91;;;6.72;nan
78459;BME280;67753;42.684;23.330;2023-03-23T03:18:13;94828.13;;;6.77;nan
78459;BME280;67753;42.684;23.330;2023-03-23T03:20:18;94832.38;;;6.78;nan
78459;BME280;67753;42.684;23.330;2023-03-23T03:22:25;94829.34;;;6.80;nan
78459;BME280;67753;42.684;23.330;2023-03-23T03:24:31;94822.16;;;6.68;nan
78459;BME280;67753;42.684;23.330;2023-03-23T03:26:34;94829.69;;;6.66;nan
78459;BME280;67753;42.684;23.330;2023-03-23T03:28:38;94833.03;;;6.75;nan
78459;BME280;67753;42.684;23.330;2023-03-23T03:30:42;94829.03;;;6.45;nan
78459;BME280;67753;42.684;23.330;2023-03-23T03:32:49;94827.91;;;6.58;nan
78459;BME280;67753;42.684;23.330;2023-03-23T03:34:53;94837.69;;;6.66;nan
78459;BME280;67753;42.684;23.330;2023-03-23T03:36:56;94839.44;;;6.62;nan
78459;BME280;67753;42.684;23.330;2023-03-23T03:39:04;94839.78;;;6.60;nan
78459;BME280;67753;42.684;23.330;2023-03-23T03:41:09;94846.13;;;6.68;nan
78459;BME280;67753;42.684;23.330;2023-03-23T03:43:11;94846.13;;;6.68;nan
78459;BME280;67753;42.684;23.330;2023-03-23T03:45:15;94846.75;;;6.77;nan
78459;BME280;67753;42.684;23.330;2023-03-23T03:47:21;94849.97;;;6.58;nan
78459;BME280;67753;42.684;23.330;2023-03-23T03:49:23;94834.47;;;6.60;nan
78459;BME280;67753;42.684;23.330;2023-03-23T03:51:28;94845.00;;;6.81;nan
78459;BME280;67753;42.684;23.330;2023-03-23T03:53:37;94843.88;;;6.58;nan
78459;BME280;67753;42.684;23.330;2023-03-23T03:55:41;94836.44;;;6.39;nan
78459;BME280;67753;42.684;23.330;2023-03-23T03:57:49;94828.13;;;6.65;nan
78459;BME280;67753;42.684;23.330;2023-03-23T03:59:51;94833.00;;;6.51;nan
78459;BME280;67753;42.684;23.330;2023-03-23T04:01:52;94822.53;;;6.09;nan
78459;BME280;67753;42.684;23.330;2023-03-23T04:03:55;94815.22;;;6.30;nan
78459;BME280;67753;42.684;23.330;2023-03-23T04:05:57;94820.47;;;6.39;nan
78459;BME280;67753;42.684;23.330;2023-03-23T04:07:59;94826.78;;;6.47;nan
78459;BME280;67753;42.684;23.330;2023-03-23T04:10:03;94824.69;;;6.52;nan
78459;BME280;67753;42.684;23.330;2023-03-23T04:12:08;94827.69;;;6.51;nan
78459;BME280;67753;42.684;23.330;2023-03-23T04:14:10;94825.91;;;6.43;nan
78459;BME280;67753;42.684;23.330;2023-03-23T04:16:12;94832.34;;;6.54;nan
78459;BME280;67753;42.684;23.330;2023-03-23T04:18:14;94824.81;;;6.56;nan
78459;BME280;67753;42.684;23.330;2023-03-23T04:20:17;94827.91;;;6.58;nan
78459;BME280;67753;42.684;23.330;2023-03-23T04:22:20;94835.69;;;6.51;nan
78459;BME280;67753;42.684;23.330;2023-03-23T04:24:25;94835.47;;;6.56;nan
78459;BME280;67753;42.684;23.330;2023-03-23T04:26:28;94836.34;;;6.60;nan
78459;BME280;67753;42.684;23.330;2023-03-23T04:28:34;94834.56;;;6.52;nan
78459;BME280;67753;42.684;23.330;2023-03-23T04:30:36;94833.00;;;6.38;nan
78459;BME280;67753;42.684;23.330;2023-03-23T04:32:38;94824.66;;;6.28;nan
78459;BME280;67753;42.684;23.330;2023-03-23T04:34:42;94817.75;;;6.14;nan
78459;BME280;67753;42.684;23.330;2023-03-23T04:36:45;94821.66;;;6.17;nan
78459;BME280;67753;42.684;23.330;2023-03-23T04:38:48;94825.94;;;6.55;nan
78459;BME280;67753;42.684;23.330;2023-03-23T04:40:55;94833.59;;;6.69;nan
78459;BME280;67753;42.684;23.330;2023-03-23T04:42:57;94839.66;;;6.45;nan
78459;BME280;67753;42.684;23.330;2023-03-23T04:45:08;94830.56;;;6.70;nan
78459;BME280;67753;42.684;23.330;2023-03-23T04:47:10;94840.47;;;6.70;nan
78459;BME280;67753;42.684;23.330;2023-03-23T04:49:13;94842.31;;;6.81;nan
78459;BME280;67753;42.684;23.330;2023-03-23T04:51:21;94855.34;;;6.83;nan
78459;BME280;67753;42.684;23.330;2023-03-23T04:53:25;94842.78;;;6.83;nan
78459;BME280;67753;42.684;23.330;2023-03-23T04:55:26;94858.88;;;6.99;nan
78459;BME280;67753;42.684;23.330;2023-03-23T04:57:28;94858.53;;;6.88;nan
78459;BME280;67753;42.684;23.330;2023-03-23T04:59:31;94851.22;;;6.73;nan
78459;BME280;67753;42.684;23.330;2023-03-23T05:01:35;94862.53;;;6.95;nan
78459;BME280;67753;42.684;23.330;2023-03-23T05:03:38;94867.41;;;7.05;nan
78459;BME280;67753;42.684;23.330;2023-03-23T05:05:40;94871.59;;;7.18;nan
78459;BME280;67753;42.684;23.330;2023-03-23T05:07:42;94881.03;;;7.40;nan
78459;BME280;67753;42.684;23.330;2023-03-23T05:09:46;94884.66;;;7.48;nan
78459;BME280;67753;42.684;23.330;2023-03-23T05:11:48;94881.75;;;7.53;nan
78459;BME280;67753;42.684;23.330;2023-03-23T05:13:50;94889.34;;;7.51;nan
78459;BME280;67753;42.684;23.330;2023-03-23T05:15:52;94885.59;;;7.27;nan
78459;BME280;67753;42.684;23.330;2023-03-23T05:17:55;94884.72;;;7.23;nan
78459;BME280;67753;42.684;23.330;2023-03-23T05:19:57;94888.44;;;7.47;nan
78459;BME280;67753;42.684;23.330;2023-03-23T05:22:07;94894.19;;;7.61;nan
78459;BME280;67753;42.684;23.330;2023-03-23T05:24:09;94895.44;;;7.51;nan
78459;BME280;67753;42.684;23.330;2023-03-23T05:26:12;94907.75;;;7.56;nan
78459;BME280;67753;42.684;23.330;2023-03-23T05:28:15;94912.19;;;7.64;nan
78459;BME280;67753;42.684;23.330;2023-03-23T05:30:20;94909.75;;;7.59;nan
78459;BME280;67753;42.684;23.330;2023-03-23T05:32:22;94921.50;;;7.82;nan
78459;BME280;67753;42.684;23.330;2023-03-23T05:34:31;94911.97;;;7.69;nan
78459;BME280;67753;42.684;23.330;2023-03-23T05:36:33;94928.78;;;7.98;nan
78459;BME280;67753;42.684;23.330;2023-03-23T05:38:36;94931.59;;;8.17;nan
78459;BME280;67753;42.684;23.330;2023-03-23T05:40:39;94936.94;;;8.17;nan
78459;BME280;67753;42.684;23.330;2023-03-23T05:42:41;94941.69;;;8.24;nan
78459;BME280;67753;42.684;23.330;2023-03-23T05:44:45;94936.53;;;8.31;nan
78459;BME280;67753;42.684;23.330;2023-03-23T05:46:47;94946.84;;;8.44;nan
78459;BME280;67753;42.684;23.330;2023-03-23T05:48:50;94955.13;;;8.39;nan
78459;BME280;67753;42.684;23.330;2023-03-23T05:50:54;94942.88;;;8.38;nan
78459;BME280;67753;42.684;23.330;2023-03-23T05:52:56;94956.16;;;8.51;nan
78459;BME280;67753;42.684;23.330;2023-03-23T05:54:58;94958.16;;;8.54;nan
78459;BME280;67753;42.684;23.330;2023-03-23T05:57:00;94959.94;;;8.50;nan
78459;BME280;67753;42.684;23.330;2023-03-23T05:59:02;94957.97;;;8.47;nan
78459;BME280;67753;42.684;23.330;2023-03-23T06:01:06;94962.97;;;8.48;nan
78459;BME280;67753;42.684;23.330;2023-03-23T06:03:08;94960.31;;;8.36;nan
78459;BME280;67753;42.684;23.330;2023-03-23T06:05:12;94960.03;;;8.25;nan
78459;BME280;67753;42.684;23.330;2023-03-23T06:07:15;94955.19;;;8.15;nan
78459;BME280;67753;42.684;23.330;2023-03-23T06:09:18;94956.56;;;7.97;nan
78459;BME280;67753;42.684;23.330;2023-03-23T06:11:21;94952.44;;;7.99;nan
78459;BME280;67753;42.684;23.330;2023-03-23T06:13:23;94948.75;;;8.04;nan
78459;BME280;67753;42.684;23.330;2023-03-23T06:15:25;94948.75;;;8.04;nan
78459;BME280;67753;42.684;23.330;2023-03-23T06:17:29;94951.19;;;8.09;nan
78459;BME280;67753;42.684;23.330;2023-03-23T06:19:31;94949.69;;;7.96;nan
78459;BME280;67753;42.684;23.330;2023-03-23T06:21:34;94952.94;;;8.17;nan
78459;BME280;67753;42.684;23.330;2023-03-23T06:23:38;94947.22;;;8.31;nan
78459;BME280;67753;42.684;23.330;2023-03-23T06:25:40;94952.22;;;7.39;nan
78459;BME280;67753;42.684;23.330;2023-03-23T06:27:41;94948.66;;;7.23;nan
78459;BME280;67753;42.684;23.330;2023-03-23T06:29:44;94945.09;;;7.56;nan
78459;BME280;67753;42.684;23.330;2023-03-23T06:31:48;94950.13;;;7.98;nan
78459;BME280;67753;42.684;23.330;2023-03-23T06:33:54;94958.75;;;8.07;nan
78459;BME280;67753;42.684;23.330;2023-03-23T06:35:57;94962.47;;;8.30;nan
78459;BME280;67753;42.684;23.330;2023-03-23T06:37:59;94971.97;;;8.72;nan
78459;BME280;67753;42.684;23.330;2023-03-23T06:40:04;94968.41;;;8.52;nan
78459;BME280;67753;42.684;23.330;2023-03-23T06:42:09;94951.53;;;8.48;nan
78459;BME280;67753;42.684;23.330;2023-03-23T06:44:11;94950.81;;;8.51;nan
78459;BME280;67753;42.684;23.330;2023-03-23T06:46:13;94959.38;;;8.28;nan
78459;BME280;67753;42.684;23.330;2023-03-23T06:48:17;94967.41;;;8.16;nan
78459;BME280;67753;42.684;23.330;2023-03-23T06:50:20;94964.59;;;8.25;nan
78459;BME280;67753;42.684;23.330;2023-03-23T06:52:22;94981.56;;;8.32;nan
78459;BME280;67753;42.684;23.330;2023-03-23T06:54:25;94985.47;;;8.35;nan
78459;BME280;67753;42.684;23.330;2023-03-23T06:56:29;94979.09;;;8.52;nan
78459;BME280;67753;42.684;23.330;2023-03-23T06:58:31;94985.00;;;8.73;nan
78459;BME280;67753;42.684;23.330;2023-03-23T07:00:33;94989.06;;;8.83;nan
78459;BME280;67753;42.684;23.330;2023-03-23T07:02:36;94987.84;;;8.80;nan
78459;BME280;67753;42.684;23.330;2023-03-23T07:04:38;94994.41;;;8.83;nan
78459;BME280;67753;42.684;23.330;2023-03-23T07:06:40;94988.44;;;8.74;nan
78459;BME280;67753;42.684;23.330;2023-03-23T07:08:44;94993.47;;;9.07;nan
78459;BME280;67753;42.684;23.330;2023-03-23T07:10:46;94989.00;;;9.11;nan
78459;BME280;67753;42.684;23.330;2023-03-23T07:12:51;95002.69;;;8.93;nan
78459;BME280;67753;42.684;23.330;2023-03-23T07:14:53;95002.94;;;8.88;nan
78459;BME280;67753;42.684;23.330;2023-03-23T07:16:55;94998.91;;;9.10;nan
78459;BME280;67753;42.684;23.330;2023-03-23T07:18:57;95008.50;;;9.27;nan
78459;BME280;67753;42.684;23.330;2023-03-23T07:20:59;95011.78;;;9.36;nan
78459;BME280;67753;42.684;23.330;2023-03-23T07:23:02;95009.53;;;9.38;nan
78459;BME280;67753;42.684;23.330;2023-03-23T07:25:06;95010.22;;;9.35;nan
78459;BME280;67753;42.684;23.330;2023-03-23T07:27:08;95014.88;;;9.38;nan
78459;BME280;67753;42.684;23.330;2023-03-23T07:29:12;95007.22;;;9.37;nan
78459;BME280;67753;42.684;23.330;2023-03-23T07:31:14;95002.63;;;9.37;nan
78459;BME280;67753;42.684;23.330;2023-03-23T07:33:16;95008.59;;;9.46;nan
78459;BME280;67753;42.684;23.330;2023-03-23T07:35:18;95012.38;;;9.45;nan
78459;BME280;67753;42.684;23.330;2023-03-23T07:37:20;95012.28;;;9.58;nan
78459;BME280;67753;42.684;23.330;2023-03-23T07:39:23;95022.81;;;9.51;nan
78459;BME280;67753;42.684;23.330;2023-03-23T07:41:25;95016.25;;;9.64;nan
78459;BME280;67753;42.684;23.330;2023-03-23T07:43:27;95025.31;;;9.75;nan
78459;BME280;67753;42.684;23.330;2023-03-23T07:45:31;95029.16;;;9.93;nan
78459;BME280;67753;42.684;23.330;2023-03-23T07:47:33;95026.41;;;9.90;nan
78459;BME280;67753;42.684;23.330;2023-03-23T07:49:36;95037.78;;;10.03;nan
78459;BME280;67753;42.684;23.330;2023-03-23T07:51:38;95033.78;;;9.96;nan
78459;BME280;67753;42.684;23.330;2023-03-23T07:53:40;95032.25;;;9.95;nan
78459;BME280;67753;42.684;23.330;2023-03-23T07:55:44;95034.81;;;10.08;nan
78459;BME280;67753;42.684;23.330;2023-03-23T07:57:48;95036.59;;;10.19;nan
78459;BME280;67753;42.684;23.330;2023-03-23T07:59:49;95046.50;;;9.99;nan
78459;BME280;67753;42.684;23.330;2023-03-23T08:01:53;95041.19;;;10.19;nan
78459;BME280;67753;42.684;23.330;2023-03-23T08:03:56;95041.03;;;10.12;nan
78459;BME280;67753;42.684;23.330;2023-03-23T08:06:00;95045.91;;;10.41;nan
78459;BME280;67753;42.684;23.330;2023-03-23T08:08:02;95051.53;;;10.56;nan
78459;BME280;67753;42.684;23.330;2023-03-23T08:10:06;95053.09;;;10.57;nan
78459;BME280;67753;42.684;23.330;2023-03-23T08:12:10;95062.84;;;10.65;nan
78459;BME280;67753;42.684;23.330;2023-03-23T08:14:13;95057.88;;;10.86;nan
78459;BME280;67753;42.684;23.330;2023-03-23T08:16:15;95058.72;;;10.90;nan
78459;BME280;67753;42.684;23.330;2023-03-23T08:18:20;95062.09;;;11.07;nan
78459;BME280;67753;42.684;23.330;2023-03-23T08:20:23;95069.00;;;11.08;nan
78459;BME280;67753;42.684;23.330;2023-03-23T08:22:25;95067.00;;;11.24;nan
78459;BME280;67753;42.684;23.330;2023-03-23T08:24:29;95079.03;;;11.11;nan
78459;BME280;67753;42.684;23.330;2023-03-23T08:26:31;95071.59;;;11.23;nan
78459;BME280;67753;42.684;23.330;2023-03-23T08:28:34;95077.97;;;11.15;nan
78459;BME280;67753;42.684;23.330;2023-03-23T08:30:38;95075.72;;;11.40;nan
78459;BME280;67753;42.684;23.330;2023-03-23T08:32:40;95082.78;;;11.48;nan
78459;BME280;67753;42.684;23.330;2023-03-23T08:34:44;95083.03;;;11.63;nan
78459;BME280;67753;42.684;23.330;2023-03-23T08:36:45;95087.97;;;12.07;nan
78459;BME280;67753;42.684;23.330;2023-03-23T08:38:47;95078.44;;;11.86;nan
78459;BME280;67753;42.684;23.330;2023-03-23T08:40:51;95074.84;;;12.01;nan
78459;BME280;67753;42.684;23.330;2023-03-23T08:42:55;95064.00;;;12.21;nan
78459;BME280;67753;42.684;23.330;2023-03-23T08:44:56;95086.81;;;12.08;nan
78459;BME280;67753;42.684;23.330;2023-03-23T08:46:58;95082.47;;;12.26;nan
78459;BME280;67753;42.684;23.330;2023-03-23T08:49:00;95092.19;;;12.34;nan
78459;BME280;67753;42.684;23.330;2023-03-23T08:51:08;95092.34;;;12.45;nan
78459;BME280;67753;42.684;23.330;2023-03-23T08:53:10;95101.59;;;12.47;nan
78459;BME280;67753;42.684;23.330;2023-03-23T08:55:13;95076.56;;;13.03;nan
78459;BME280;67753;42.684;23.330;2023-03-23T08:57:15;95100.75;;;13.34;nan
78459;BME280;67753;42.684;23.330;2023-03-23T08:59:18;95111.13;;;13.01;nan
78459;BME280;67753;42.684;23.330;2023-03-23T09:01:20;95104.13;;;12.97;nan
78459;BME280;67753;42.684;23.330;2023-03-23T09:03:21;95096.66;;;13.13;nan
78459;BME280;67753;42.684;23.330;2023-03-23T09:05:25;95107.03;;;13.48;nan
78459;BME280;67753;42.684;23.330;2023-03-23T09:07:28;95117.41;;;13.87;nan
78459;BME280;67753;42.684;23.330;2023-03-23T09:09:31;95124.25;;;14.25;nan
78459;BME280;67753;42.684;23.330;2023-03-23T09:11:35;95121.31;;;13.97;nan
78459;BME280;67753;42.684;23.330;2023-03-23T09:13:38;95123.84;;;14.23;nan
78459;BME280;67753;42.684;23.330;2023-03-23T09:15:40;95117.59;;;14.09;nan
78459;BME280;67753;42.684;23.330;2023-03-23T09:17:44;95120.22;;;14.01;nan
78459;BME280;67753;42.684;23.330;2023-03-23T09:19:45;95126.38;;;13.98;nan
78459;BME280;67753;42.684;23.330;2023-03-23T09:21:47;95127.38;;;13.83;nan
78459;BME280;67753;42.684;23.330;2023-03-23T09:23:51;95117.34;;;13.80;nan
78459;BME280;67753;42.684;23.330;2023-03-23T09:25:53;95122.31;;;14.22;nan
78459;BME280;67753;42.684;23.330;2023-03-23T09:27:56;95121.94;;;14.24;nan
78459;BME280;67753;42.684;23.330;2023-03-23T09:29:59;95119.44;;;14.52;nan
78459;BME280;67753;42.684;23.330;2023-03-23T09:32:01;95122.72;;;13.80;nan
78459;BME280;67753;42.684;23.330;2023-03-23T09:34:03;95112.38;;;13.41;nan
78459;BME280;67753;42.684;23.330;2023-03-23T09:36:07;95111.03;;;13.62;nan
78459;BME280;67753;42.684;23.330;2023-03-23T09:38:13;95106.09;;;14.19;nan
78459;BME280;67753;42.684;23.330;2023-03-23T09:40:18;95107.13;;;13.59;nan
78459;BME280;67753;42.684;23.330;2023-03-23T09:42:33;95106.44;;;13.66;nan
78459;BME280;67753;42.684;23.330;2023-03-23T09:44:53;95109.50;;;14.09;nan
78459;BME280;67753;42.684;23.330;2023-03-23T09:47:02;95103.50;;;13.81;nan
78459;BME280;67753;42.684;23.330;2023-03-23T09:49:10;95099.88;;;13.63;nan
78459;BME280;67753;42.684;23.330;2023-03-23T09:51:21;95104.28;;;13.82;nan
78459;BME280;67753;42.684;23.330;2023-03-23T09:53:30;95102.81;;;13.88;nan
78459;BME280;67753;42.684;23.330;2023-03-23T09:55:37;95100.97;;;14.51;nan
78459;BME280;67753;42.684;23.330;2023-03-23T09:57:43;95105.25;;;14.07;nan
78459;BME280;67753;42.684;23.330;2023-03-23T09:59:52;95104.19;;;14.78;nan
78459;BME280;67753;42.684;23.330;2023-03-23T10:01:58;95102.38;;;15.03;nan
78459;BME280;67753;42.684;23.330;2023-03-23T10:04:05;95105.69;;;14.72;nan
78459;BME280;67753;42.684;23.330;2023-03-23T10:06:10;95102.06;;;14.46;nan
78459;BME280;67753;42.684;23.330;2023-03-23T10:08:15;95108.34;;;14.10;nan
78459;BME280;67753;42.684;23.330;2023-03-23T10:10:17;95096.84;;;14.13;nan
78459;BME280;67753;42.684;23.330;2023-03-23T10:12:27;95104.88;;;14.61;nan
78459;BME280;67753;42.684;23.330;2023-03-23T10:14:55;95101.28;;;15.15;nan
78459;BME280;67753;42.684;23.330;2023-03-23T10:17:11;95103.34;;;14.67;nan
78459;BME280;67753;42.684;23.330;2023-03-23T10:19:20;95095.47;;;15.17;nan
78459;BME280;67753;42.684;23.330;2023-03-23T10:21:23;95101.41;;;15.69;nan
78459;BME280;67753;42.684;23.330;2023-03-23T10:23:50;95096.75;;;15.58;nan
78459;BME280;67753;42.684;23.330;2023-03-23T10:25:57;95106.47;;;15.81;nan
78459;BME280;67753;42.684;23.330;2023-03-23T10:28:08;95108.38;;;16.34;nan
78459;BME280;67753;42.684;23.330;2023-03-23T10:30:16;95105.69;;;16.05;nan
78459;BME280;67753;42.684;23.330;2023-03-23T10:32:21;95099.75;;;15.25;nan
78459;BME280;67753;42.684;23.330;2023-03-23T10:34:28;95095.06;;;15.07;nan
78459;BME280;67753;42.684;23.330;2023-03-23T10:36:35;95087.38;;;15.17;nan
78459;BME280;67753;42.684;23.330;2023-03-23T10:38:42;95091.19;;;15.05;nan
78459;BME280;67753;42.684;23.330;2023-03-23T10:40:49;95087.44;;;15.38;nan
78459;BME280;67753;42.684;23.330;2023-03-23T10:42:53;95097.16;;;16.35;nan
78459;BME280;67753;42.684;23.330;2023-03-23T10:44:58;95092.56;;;16.07;nan
78459;BME280;67753;42.684;23.330;2023-03-23T10:47:02;95093.72;;;16.28;nan
78459;BME280;67753;42.684;23.330;2023-03-23T10:49:08;95100.91;;;17.02;nan
78459;BME280;67753;42.684;23.330;2023-03-23T10:51:13;95095.13;;;17.00;nan
78459;BME280;67753;42.684;23.330;2023-03-23T10:53:21;95084.34;;;16.79;nan
78459;BME280;67753;42.684;23.330;2023-03-23T10:55:36;95093.31;;;16.26;nan
78459;BME280;67753;42.684;23.330;2023-03-23T10:57:41;95089.81;;;16.36;nan
78459;BME280;67753;42.684;23.330;2023-03-23T10:59:43;95081.38;;;16.05;nan
78459;BME280;67753;42.684;23.330;2023-03-23T11:01:49;95087.53;;;16.31;nan
78459;BME280;67753;42.684;23.330;2023-03-23T11:03:52;95087.50;;;16.49;nan
78459;BME280;67753;42.684;23.330;2023-03-23T11:05:56;95088.22;;;16.78;nan
78459;BME280;67753;42.684;23.330;2023-03-23T11:08:00;95081.94;;;17.09;nan
78459;BME280;67753;42.684;23.330;2023-03-23T11:10:20;95076.09;;;17.18;nan
78459;BME280;67753;42.684;23.330;2023-03-23T11:12:24;95082.47;;;16.47;nan
78459;BME280;67753;42.684;23.330;2023-03-23T11:14:29;95079.81;;;16.26;nan
78459;BME280;67753;42.684;23.330;2023-03-23T11:16:33;95070.06;;;16.68;nan
78459;BME280;67753;42.684;23.330;2023-03-23T11:18:40;95075.16;;;16.26;nan
78459;BME280;67753;42.684;23.330;2023-03-23T11:20:44;95066.69;;;16.06;nan
78459;BME280;67753;42.684;23.330;2023-03-23T11:22:49;95060.53;;;15.95;nan
78459;BME280;67753;42.684;23.330;2023-03-23T11:24:53;95071.19;;;16.84;nan